createdAt,value
2017-02-19T00:00:07.383Z,21.5
2017-02-19T00:02:39.933Z,21.5
2017-02-19T00:05:13.531Z,21.5
2017-02-19T09:27:31.505Z,20.7
2017-02-19T09:30:04.276Z,20.7
2017-02-19T09:32:36.793Z,21
2017-02-19T09:35:10.189Z,21.3
2017-02-19T09:37:42.736Z,21.7
2017-02-19T09:40:15.289Z,22
2017-02-19T09:42:48.749Z,22.3
2017-02-19T09:45:21.305Z,22.5
2017-02-19T09:47:53.860Z,22.8
2017-02-19T09:50:26.853Z,22.7
2017-02-19T09:52:59.855Z,22.7
2017-02-19T09:55:32.958Z,22.5
2017-02-19T09:58:05.471Z,22.4
2017-02-19T10:00:38.239Z,22.5
2017-02-19T10:03:11.257Z,22.4
2017-02-19T10:05:43.800Z,22.5
2017-02-19T10:08:16.365Z,22.4
2017-02-19T10:10:49.774Z,22.5
2017-02-19T10:13:22.339Z,22.6
2017-02-19T10:15:54.896Z,22.6
2017-02-19T10:18:27.895Z,22.6
2017-02-19T10:21:00.478Z,22.6
2017-02-19T10:23:33.190Z,22.6
2017-02-19T10:26:05.741Z,22.7
2017-02-19T10:28:38.771Z,22.8
2017-02-19T10:31:11.328Z,22.8
2017-02-19T10:33:43.879Z,22.8
2017-02-19T10:36:16.447Z,22.8
2017-02-19T10:38:49.851Z,22.9
2017-02-19T10:41:22.403Z,22.9
2017-02-19T10:43:55.368Z,22.9
2017-02-19T10:46:27.905Z,22.8
2017-02-19T10:49:00.664Z,22.8
2017-02-19T10:51:34.065Z,22.8
2017-02-19T10:54:07.014Z,22.9
2017-02-19T10:56:39.550Z,22.9
2017-02-19T10:59:12.801Z,23
2017-02-19T11:01:45.317Z,23
2017-02-19T11:04:17.869Z,23
2017-02-19T11:06:50.449Z,23
2017-02-19T11:09:23.398Z,23
2017-02-19T11:11:56.367Z,23
2017-02-19T11:14:28.924Z,23
2017-02-19T11:17:01.476Z,23
2017-02-19T11:19:34.019Z,23
2017-02-19T11:22:06.599Z,23
2017-02-19T11:24:39.237Z,23
2017-02-19T11:27:11.974Z,22.9
2017-02-19T11:29:44.531Z,23
2017-02-19T11:32:17.080Z,22.9
2017-02-19T11:34:49.618Z,22.9
2017-02-19T11:37:22.151Z,22.9
2017-02-19T11:39:55.134Z,22.9
2017-02-19T11:42:27.665Z,22.9
2017-02-19T11:45:00.202Z,22.9
2017-02-19T11:47:32.903Z,22.9
2017-02-19T11:50:05.855Z,22.9
2017-02-19T11:52:38.398Z,22.9
2017-02-19T11:55:10.946Z,22.9
2017-02-19T11:57:44.380Z,22.9
2017-02-19T12:00:16.930Z,23
2017-02-19T12:02:49.461Z,23
2017-02-19T12:05:22.027Z,23
2017-02-19T12:07:54.553Z,23
2017-02-19T12:10:27.570Z,23.1
2017-02-19T12:13:01.205Z,23.1
2017-02-19T12:15:34.141Z,23.1
2017-02-19T12:18:07.300Z,23.1
2017-02-19T12:20:40.276Z,23.2
2017-02-19T12:23:13.680Z,23.3
2017-02-19T12:25:46.244Z,23.3
2017-02-19T12:28:19.146Z,23.4
2017-02-19T12:30:51.900Z,23.3
2017-02-19T12:33:24.466Z,23.3
2017-02-19T12:35:57.004Z,23.3
2017-02-19T12:38:30.139Z,23.3
2017-02-19T12:41:02.717Z,23.2
2017-02-19T12:43:35.260Z,23.2
2017-02-19T12:46:07.830Z,23.2
2017-02-19T12:48:40.353Z,23.2
2017-02-19T12:51:12.877Z,23.2
2017-02-19T12:53:45.437Z,23.2
2017-02-19T12:56:18.156Z,23.2
2017-02-19T12:58:51.260Z,23.2
2017-02-19T13:01:24.071Z,23.2
2017-02-19T13:04:02.974Z,23.2
2017-02-19T13:06:38.964Z,23.1
2017-02-19T13:09:11.498Z,23.2
2017-02-19T13:11:44.449Z,23.2
2017-02-19T13:14:17.449Z,23.2
2017-02-19T13:16:50.014Z,23.2
2017-02-19T13:19:22.991Z,23.1
2017-02-19T13:21:55.557Z,23.1
2017-02-19T13:24:28.545Z,23.2
2017-02-19T13:27:01.519Z,23.2
2017-02-19T13:29:34.086Z,23.2
2017-02-19T13:32:06.668Z,23.2
2017-02-19T13:34:39.621Z,23.2
2017-02-19T13:37:12.159Z,23.2
2017-02-19T13:39:44.690Z,23.2
2017-02-19T13:42:17.260Z,23.3
2017-02-19T13:44:50.237Z,23.2
2017-02-19T13:47:23.230Z,23.2
2017-02-19T13:49:56.177Z,23.2
2017-02-19T13:52:29.590Z,23.2
2017-02-19T13:55:02.164Z,23.2
2017-02-19T13:57:35.116Z,23.2
2017-02-19T14:00:07.792Z,23.2
2017-02-19T14:02:40.348Z,23.1
2017-02-19T14:05:13.395Z,23
2017-02-19T14:07:45.946Z,23
2017-02-19T14:10:18.519Z,22.9
2017-02-19T14:12:51.127Z,22.9
2017-02-19T14:15:24.115Z,22.8
2017-02-19T14:17:56.653Z,22.7
2017-02-19T14:20:29.622Z,22.7
2017-02-19T14:23:02.164Z,22.7
2017-02-19T14:25:34.730Z,22.6
2017-02-19T14:28:08.335Z,22.6
2017-02-19T14:30:41.291Z,22.6
2017-02-19T14:33:13.847Z,22.6
2017-02-19T14:35:46.399Z,22.5
2017-02-19T14:38:18.914Z,22.5
2017-02-19T14:40:51.471Z,22.5
2017-02-19T14:43:24.039Z,22.5
2017-02-19T14:45:56.997Z,22.6
2017-02-19T14:48:29.533Z,22.6
2017-02-19T14:51:02.983Z,22.5
2017-02-19T14:53:35.741Z,22.6
2017-02-19T14:56:08.732Z,22.5
2017-02-19T14:58:42.469Z,22.5
2017-02-19T15:01:15.456Z,22.5
2017-02-19T15:04:03.410Z,22.5
2017-02-19T15:07:14.893Z,22.5
2017-02-19T15:10:19.963Z,22.4
2017-02-19T15:13:17.008Z,22.4
2017-02-19T15:16:21.316Z,22.3
2017-02-19T15:19:03.559Z,22.3
2017-02-19T15:21:36.114Z,22.4
2017-02-19T15:24:08.667Z,22.4
2017-02-19T15:26:41.354Z,22.4
2017-02-19T15:29:13.936Z,22.5
2017-02-19T15:31:46.533Z,22.5
2017-02-19T15:34:19.078Z,22.6
2017-02-19T15:36:52.770Z,22.6
2017-02-19T15:39:25.734Z,22.7
2017-02-19T15:41:58.273Z,22.7
2017-02-19T15:44:30.808Z,22.8
2017-02-19T15:47:03.771Z,22.8
2017-02-19T15:49:36.376Z,22.9
2017-02-19T15:52:08.903Z,22.9
2017-02-19T15:54:41.716Z,22.9
2017-02-19T15:57:14.262Z,22.9
2017-02-19T15:59:46.818Z,22.9
2017-02-19T16:02:20.007Z,23
2017-02-19T16:04:53.007Z,23
2017-02-19T16:07:25.962Z,23
2017-02-19T16:09:58.491Z,23.1
2017-02-19T16:12:31.029Z,23.1
2017-02-19T16:15:03.579Z,23.2
2017-02-19T16:17:36.142Z,23.2
2017-02-19T16:20:09.559Z,23.3
2017-02-19T16:22:42.110Z,23.4
2017-02-19T16:25:15.075Z,23.5
2017-02-19T16:27:47.615Z,23.6
2017-02-19T16:30:20.152Z,23.6
2017-02-19T16:32:52.724Z,23.7
2017-02-19T16:35:25.320Z,23.7
2017-02-19T16:37:57.893Z,23.8
2017-02-19T16:40:30.455Z,23.8
2017-02-19T16:43:03.028Z,23.8
2017-02-19T16:45:36.040Z,23.8
2017-02-19T16:48:08.645Z,23.9
2017-02-19T16:50:41.175Z,23.8
2017-02-19T16:53:13.727Z,23.9
2017-02-19T16:55:46.703Z,23.8
2017-02-19T16:58:19.221Z,23.8
2017-02-19T17:00:52.215Z,23.8
2017-02-19T17:03:25.168Z,23.8
2017-02-19T17:05:57.731Z,23.8
2017-02-19T17:08:30.239Z,23.8
2017-02-19T17:11:03.237Z,23.7
2017-02-19T17:13:35.786Z,23.7
2017-02-19T17:16:08.332Z,23.7
2017-02-19T17:18:40.884Z,23.7
2017-02-19T17:21:13.502Z,23.7
2017-02-19T17:23:46.138Z,23.7
2017-02-19T17:26:18.690Z,23.7
2017-02-19T17:28:52.318Z,23.7
2017-02-19T17:31:24.878Z,23.7
2017-02-19T17:33:57.426Z,23.7
2017-02-19T17:36:29.966Z,23.7
2017-02-19T17:39:02.579Z,23.7
2017-02-19T17:41:35.160Z,23.6
2017-02-19T17:44:08.147Z,23.6
2017-02-19T17:46:41.418Z,23.6
2017-02-19T17:49:14.371Z,23.6
2017-02-19T17:51:47.327Z,23.6
2017-02-19T17:54:19.857Z,23.5
2017-02-19T17:56:52.378Z,23.5
2017-02-19T17:59:25.346Z,23.5
2017-02-19T18:01:57.919Z,23.5
2017-02-19T18:04:30.455Z,23.5
2017-02-19T18:07:02.990Z,23.5
2017-02-19T18:09:36.371Z,23.5
2017-02-19T18:12:09.340Z,23.5
2017-02-19T18:14:41.892Z,23.5
2017-02-19T18:19:56.336Z,23.4
2017-02-19T18:22:28.990Z,23.5
2017-02-19T18:25:02.119Z,23.5
2017-02-19T18:27:35.198Z,23.5
2017-02-19T18:30:07.865Z,23.4
2017-02-19T18:32:40.542Z,23.4
2017-02-19T18:35:13.598Z,23.4
2017-02-19T18:37:46.674Z,23.4
2017-02-19T18:40:19.315Z,23.4
2017-02-19T18:42:51.967Z,23.3
2017-02-19T18:45:25.009Z,23.3
2017-02-19T18:47:57.870Z,23.3
2017-02-19T18:50:30.554Z,23.4
2017-02-19T18:53:03.187Z,23.4
2017-02-19T18:55:36.031Z,23.5
2017-02-19T18:58:08.762Z,23.5
2017-02-19T19:00:41.427Z,23.6
2017-02-19T19:03:14.060Z,23.6
2017-02-19T19:05:46.691Z,23.7
2017-02-19T19:08:19.353Z,23.7
2017-02-19T19:10:51.999Z,23.7
2017-02-19T19:13:24.673Z,23.7
2017-02-19T19:15:57.321Z,23.7
2017-02-19T19:18:29.967Z,23.7
2017-02-19T19:21:03.203Z,23.7
2017-02-19T19:23:36.318Z,23.7
2017-02-19T19:26:09.179Z,23.7
2017-02-19T19:28:43.507Z,23.7
2017-02-19T19:31:16.123Z,23.8
2017-02-19T19:33:49.145Z,23.8
2017-02-19T19:36:22.220Z,23.8
2017-02-19T19:38:54.853Z,23.8
2017-02-19T19:41:28.515Z,23.8
2017-02-19T19:44:01.124Z,23.8
2017-02-19T19:46:33.783Z,23.8
2017-02-19T19:50:19.814Z,23.8
2017-02-19T19:52:52.640Z,23.8
2017-02-19T19:55:25.316Z,23.8
2017-02-19T19:57:58.352Z,23.8
2017-02-19T20:00:31.000Z,23.8
2017-02-19T20:03:03.685Z,23.8
2017-02-19T20:05:36.340Z,23.8
2017-02-19T20:08:08.968Z,23.8
2017-02-19T20:10:41.646Z,23.8
2017-02-19T20:13:14.267Z,23.8
2017-02-19T20:15:46.922Z,23.8
2017-02-19T20:18:19.577Z,23.8
2017-02-19T20:20:52.219Z,23.8
2017-02-19T20:23:24.885Z,23.8
2017-02-19T20:25:57.549Z,23.8
2017-02-19T20:28:30.199Z,23.8
2017-02-19T20:31:02.880Z,23.8
2017-02-19T20:33:35.560Z,23.8
2017-02-19T20:36:08.456Z,23.8
2017-02-19T20:38:41.509Z,23.8
2017-02-19T20:41:14.158Z,23.7
2017-02-19T20:43:47.375Z,23.7
2017-02-19T20:46:20.017Z,23.7
2017-02-19T20:48:52.654Z,23.7
2017-02-19T20:51:25.652Z,23.7
2017-02-19T20:53:58.316Z,23.7
2017-02-19T20:56:30.928Z,23.7
2017-02-19T20:59:04.013Z,23.7
2017-02-19T21:01:37.107Z,23.7
2017-02-19T21:04:10.192Z,23.6
2017-02-19T21:06:43.328Z,23.7
2017-02-19T21:09:16.013Z,23.6
2017-02-19T21:11:48.633Z,23.6
2017-02-19T21:14:21.329Z,23.6
2017-02-19T21:16:54.027Z,23.6
2017-02-19T21:19:27.092Z,23.6
2017-02-19T21:22:00.192Z,23.6
2017-02-19T21:24:32.847Z,23.6
2017-02-19T21:27:05.569Z,23.6
2017-02-19T21:29:38.608Z,23.6
2017-02-19T21:32:11.653Z,23.6
2017-02-19T21:34:45.114Z,23.6
2017-02-19T21:37:17.774Z,23.6
2017-02-19T21:39:50.423Z,23.6
2017-02-19T21:42:23.071Z,23.6
2017-02-19T21:44:55.771Z,23.6
2017-02-19T21:47:28.392Z,23.6
2017-02-19T21:50:01.409Z,23.5
2017-02-19T21:52:34.062Z,23.6
2017-02-19T21:55:06.713Z,23.6
2017-02-19T21:57:39.924Z,23.6
2017-02-19T22:00:12.557Z,23.6
2017-02-19T22:02:45.203Z,23.6
2017-02-19T22:05:17.869Z,23.6
2017-02-19T22:07:50.516Z,23.6
2017-02-19T22:10:23.237Z,23.6
2017-02-19T22:12:55.875Z,23.6
2017-02-19T22:15:28.936Z,23.6
2017-02-19T22:18:01.586Z,23.6
2017-02-19T22:20:34.230Z,23.6
2017-02-19T22:23:06.872Z,23.5
2017-02-19T22:25:39.987Z,23.5
2017-02-19T22:28:13.068Z,23.6
2017-02-19T22:30:45.771Z,23.6
2017-02-19T22:33:18.604Z,23.5
2017-02-19T22:35:51.327Z,23.5
2017-02-19T22:38:24.001Z,23.5
2017-02-19T22:40:57.069Z,23.5
2017-02-19T22:43:29.781Z,23.6
2017-02-19T22:46:03.330Z,23.5
2017-02-19T22:48:35.992Z,23.5
2017-02-19T22:51:09.663Z,23.5
2017-02-19T22:53:43.588Z,23.5
2017-02-19T22:56:16.195Z,23.5
2017-02-19T22:58:48.857Z,23.4
2017-02-19T23:01:21.956Z,23.4
2017-02-19T23:03:54.599Z,23.4
2017-02-19T23:06:27.265Z,23.5
2017-02-19T23:08:59.934Z,23.5
2017-02-19T23:11:32.621Z,23.5
2017-02-19T23:14:05.276Z,23.6
2017-02-19T23:16:37.947Z,23.6
2017-02-19T23:19:10.602Z,23.7
2017-02-19T23:21:43.242Z,23.7
2017-02-19T23:24:15.850Z,23.7
2017-02-19T23:26:49.353Z,23.7
2017-02-19T23:29:22.462Z,23.7
2017-02-19T23:31:55.497Z,23.7
2017-02-19T23:34:29.013Z,23.6
2017-02-19T23:37:03.049Z,23.6
2017-02-19T23:39:36.688Z,23.6
2017-02-19T23:42:09.335Z,23.6
2017-02-19T23:44:42.810Z,23.6
2017-02-19T23:47:15.909Z,23.6
2017-02-19T23:49:48.560Z,23.6
2017-02-19T23:52:21.625Z,23.6
2017-02-19T23:54:54.709Z,23.6
2017-02-19T23:57:27.799Z,23.6
